Time;durP1;ratioP1;P1;durP2;ratioP2;P2;SDS_P1;SDS_P2;PMS_P1;PMS_P2;Temp;Humidity;BMP_temperature;BMP_pressure;BME280_temperature;BME280_humidity;BME280_pressure;Samples;Min_cycle;Max_cycle;Signal;HPM_P1;HPM_P2
2022/06/27 00:02:07;;;;;;;5.90;1.80;;;;;;;;;;5059078;28;20346;-75
2022/06/27 00:04:34;;;;;;;3.87;1.60;;;;;;;;;;5072592;28;20715;-75
2022/06/27 00:07:03;;;;;;;5.97;1.77;;;;;;;;;;5079328;28;20283;-75
2022/06/27 00:09:33;;;;;;;6.13;1.80;;;;;;;;;;5060792;28;20242;-75
2022/06/27 00:12:02;;;;;;;5.80;1.90;;;;;;;;;;5060223;28;20552;-75
2022/06/27 00:14:31;;;;;;;5.93;1.93;;;;;;;;;;5053592;28;20203;-75
2022/06/27 00:17:00;;;;;;;7.77;2.00;;;;;;;;;;5073828;28;20297;-75
2022/06/27 00:19:28;;;;;;;5.60;1.60;;;;;;;;;;5064465;28;20559;-74
2022/06/27 00:21:56;;;;;;;5.03;2.10;;;;;;;;;;5054783;28;20232;-75
2022/06/27 00:24:25;;;;;;;4.53;1.97;;;;;;;;;;5054707;28;20287;-76
2022/06/27 00:26:53;;;;;;;4.83;1.60;;;;;;;;;;5069658;28;20203;-75
2022/06/27 00:29:21;;;;;;;3.63;1.63;;;;;;;;;;5055943;28;20200;-75
2022/06/27 00:31:49;;;;;;;5.83;1.50;;;;;;;;;;5067601;28;20206;-75
2022/06/27 00:34:17;;;;;;;7.23;1.90;;;;;;;;;;5066213;28;20276;-75
2022/06/27 00:36:45;;;;;;;6.07;1.70;;;;;;;;;;5065628;28;20537;-75
2022/06/27 00:39:13;;;;;;;4.77;1.43;;;;;;;;;;5074315;28;20621;-75
2022/06/27 00:41:40;;;;;;;4.40;1.47;;;;;;;;;;5074476;28;20670;-75
2022/06/27 00:44:09;;;;;;;5.53;1.60;;;;;;;;;;5074339;28;20233;-74
2022/06/27 00:46:36;;;;;;;4.07;1.40;;;;;;;;;;5071431;28;20244;-74
2022/06/27 00:49:06;;;;;;;4.17;1.60;;;;;;;;;;5067939;28;20207;-74
2022/06/27 00:51:33;;;;;;;5.20;1.37;;;;;;;;;;5082209;28;20234;-74
2022/06/27 00:54:04;;;;;;;8.03;2.47;;;;;;;;;;5088058;28;20718;-74
2022/06/27 00:56:31;;;;;;;6.40;1.63;;;;;;;;;;5073845;28;20191;-77
2022/06/27 00:58:59;;;;;;;5.83;1.60;;;;;;;;;;5058284;28;20290;-74
2022/06/27 01:01:27;;;;;;;6.47;1.60;;;;;;;;;;5066847;28;20203;-76
2022/06/27 01:04:00;;;;;;;6.10;1.60;;;;;;;;;;5067401;28;20311;-76
2022/06/27 01:06:29;;;;;;;7.20;1.67;;;;;;;;;;5052503;28;20192;-75
2022/06/27 01:08:59;;;;;;;4.87;1.73;;;;;;;;;;5076246;28;20694;-76
2022/06/27 01:11:30;;;;;;;4.43;1.70;;;;;;;;;;5060810;28;20214;-76
2022/06/27 01:13:58;;;;;;;6.93;1.80;;;;;;;;;;5056701;28;20207;-76
2022/06/27 01:16:26;;;;;;;6.97;2.00;;;;;;;;;;5065154;28;20205;-76
2022/06/27 01:18:54;;;;;;;5.57;1.90;;;;;;;;;;5079936;28;20332;-76
2022/06/27 01:21:23;;;;;;;4.87;2.00;;;;;;;;;;5073541;28;20206;-76
2022/06/27 01:23:53;;;;;;;4.73;2.00;;;;;;;;;;5076637;28;20217;-75
2022/06/27 01:26:22;;;;;;;6.90;2.20;;;;;;;;;;5086485;28;20209;-76
2022/06/27 01:28:53;;;;;;;8.40;2.77;;;;;;;;;;5084159;28;20549;-76
2022/06/27 01:31:20;;;;;;;6.23;2.43;;;;;;;;;;5092397;28;20285;-75
2022/06/27 01:33:48;;;;;;;5.37;2.13;;;;;;;;;;5071646;28;20286;-76
2022/06/27 01:39:02;;;;;;;4.93;2.40;;;;;;;;;;5054035;28;20312;-76
2022/06/27 01:41:30;;;;;;;3.37;2.27;;;;;;;;;;5052884;28;20203;-75
2022/06/27 01:43:57;;;;;;;3.60;2.10;;;;;;;;;;5053658;28;20316;-76
2022/06/27 01:46:24;;;;;;;7.00;2.00;;;;;;;;;;5053486;28;20305;-76
2022/06/27 01:48:51;;;;;;;7.73;2.50;;;;;;;;;;5053018;28;20627;-75
2022/06/27 01:51:19;;;;;;;6.00;2.33;;;;;;;;;;5053119;28;20271;-76
2022/06/27 01:53:46;;;;;;;7.57;2.80;;;;;;;;;;5078835;28;20286;-76
2022/06/27 01:56:15;;;;;;;9.30;2.00;;;;;;;;;;5079332;28;20234;-76
2022/06/27 01:58:42;;;;;;;4.30;2.07;;;;;;;;;;5072858;28;20288;-75
2022/06/27 02:01:09;;;;;;;5.43;2.40;;;;;;;;;;5068171;28;20289;-76
2022/06/27 02:03:37;;;;;;;5.60;2.30;;;;;;;;;;5072588;28;20226;-75
2022/06/27 02:06:06;;;;;;;7.20;2.77;;;;;;;;;;5072829;28;20297;-76
2022/06/27 02:08:33;;;;;;;9.23;2.40;;;;;;;;;;5066433;28;20797;-76
2022/06/27 02:11:00;;;;;;;7.43;2.67;;;;;;;;;;5069112;28;20282;-76
2022/06/27 02:13:30;;;;;;;7.00;2.67;;;;;;;;;;5059167;28;20237;-76
2022/06/27 02:16:04;;;;;;;4.70;2.30;;;;;;;;;;5069260;28;20200;-76
2022/06/27 02:18:31;;;;;;;7.13;2.40;;;;;;;;;;5071706;28;20218;-75
2022/06/27 02:20:59;;;;;;;9.30;2.50;;;;;;;;;;5052523;28;20233;-76
2022/06/27 02:23:26;;;;;;;6.80;2.40;;;;;;;;;;5055440;28;20801;-76
2022/06/27 02:25:54;;;;;;;5.77;2.30;;;;;;;;;;5054984;28;20679;-76
2022/06/27 02:28:22;;;;;;;7.30;2.30;;;;;;;;;;5074003;28;20237;-75
2022/06/27 02:30:50;;;;;;;3.90;2.33;;;;;;;;;;5068588;28;20205;-76
2022/06/27 02:33:18;;;;;;;5.57;2.57;;;;;;;;;;5064130;28;20226;-76
2022/06/27 02:35:45;;;;;;;6.93;2.80;;;;;;;;;;5057182;28;20246;-75
2022/06/27 02:38:13;;;;;;;4.40;2.30;;;;;;;;;;5051631;28;20286;-76
2022/06/27 02:40:41;;;;;;;6.80;2.13;;;;;;;;;;5079829;28;20624;-76
2022/06/27 02:43:09;;;;;;;4.83;2.43;;;;;;;;;;5078962;28;20305;-76
2022/06/27 02:45:37;;;;;;;4.70;2.30;;;;;;;;;;5068902;28;20286;-75
2022/06/27 02:48:07;;;;;;;4.47;2.10;;;;;;;;;;5055738;28;20289;-75
2022/06/27 02:50:36;;;;;;;5.60;2.30;;;;;;;;;;5081031;28;20336;-75
2022/06/27 02:53:07;;;;;;;8.20;2.53;;;;;;;;;;5063774;28;20657;-76
2022/06/27 02:55:36;;;;;;;5.07;2.47;;;;;;;;;;5052574;28;20284;-76
2022/06/27 02:58:08;;;;;;;7.07;2.53;;;;;;;;;;5058911;28;20225;-76
2022/06/27 03:00:37;;;;;;;4.90;2.27;;;;;;;;;;5060918;28;20205;-76
2022/06/27 03:03:06;;;;;;;4.97;2.67;;;;;;;;;;5069972;28;20227;-76
2022/06/27 03:05:33;;;;;;;6.97;2.63;;;;;;;;;;5073341;28;20222;-75
2022/06/27 03:08:01;;;;;;;8.47;3.03;;;;;;;;;;5071582;28;20296;-75
2022/06/27 03:10:28;;;;;;;7.10;2.93;;;;;;;;;;5071938;28;20237;-75
2022/06/27 03:12:55;;;;;;;7.37;2.60;;;;;;;;;;5057903;28;20237;-76
2022/06/27 03:15:22;;;;;;;4.80;2.67;;;;;;;;;;5065196;28;20284;-76
2022/06/27 03:17:49;;;;;;;4.37;2.30;;;;;;;;;;5059313;28;20214;-76
2022/06/27 03:20:18;;;;;;;6.53;2.30;;;;;;;;;;5057262;28;20290;-76
2022/06/27 03:22:45;;;;;;;7.50;3.00;;;;;;;;;;5071273;28;20204;-76
2022/06/27 03:25:12;;;;;;;6.73;3.10;;;;;;;;;;5071765;28;20289;-76
2022/06/27 03:27:39;;;;;;;5.47;2.90;;;;;;;;;;5065935;28;20229;-76
2022/06/27 03:30:07;;;;;;;9.60;2.80;;;;;;;;;;5070255;28;20293;-75
2022/06/27 03:32:34;;;;;;;4.93;2.90;;;;;;;;;;5071760;28;20302;-76
2022/06/27 03:35:01;;;;;;;4.77;2.70;;;;;;;;;;5071685;28;20298;-76
2022/06/27 03:37:30;;;;;;;7.70;2.77;;;;;;;;;;5071580;28;20289;-76
2022/06/27 03:39:57;;;;;;;5.90;2.63;;;;;;;;;;5051733;28;20635;-76
2022/06/27 03:42:24;;;;;;;5.53;2.30;;;;;;;;;;5067614;28;20224;-75
2022/06/27 03:44:51;;;;;;;5.87;2.40;;;;;;;;;;5054702;28;20225;-75
2022/06/27 03:47:19;;;;;;;5.57;2.27;;;;;;;;;;5054616;28;20654;-76
2022/06/27 03:50:00;;;;;;;4.63;2.20;;;;;;;;;;5057098;28;20245;-76
2022/06/27 03:52:27;;;;;;;5.13;2.13;;;;;;;;;;5050980;28;20668;-76
2022/06/27 03:54:56;;;;;;;3.90;2.30;;;;;;;;;;5051384;28;20785;-76
2022/06/27 03:57:23;;;;;;;4.47;2.50;;;;;;;;;;5068316;28;20232;-76
2022/06/27 03:59:50;;;;;;;8.17;3.03;;;;;;;;;;5071407;28;20232;-76
2022/06/27 04:02:17;;;;;;;6.63;2.90;;;;;;;;;;5071293;28;20251;-75
2022/06/27 04:04:44;;;;;;;5.03;2.80;;;;;;;;;;5071159;28;20705;-76
2022/06/27 04:07:12;;;;;;;6.77;2.80;;;;;;;;;;5070684;28;20681;-76
2022/06/27 04:09:39;;;;;;;5.73;2.67;;;;;;;;;;5071153;28;20292;-76
2022/06/27 04:12:08;;;;;;;6.90;3.50;;;;;;;;;;5060186;28;20289;-76
2022/06/27 04:14:35;;;;;;;7.17;2.70;;;;;;;;;;5053427;28;20623;-76
2022/06/27 04:17:03;;;;;;;7.77;2.70;;;;;;;;;;5062036;28;20686;-75
2022/06/27 04:19:30;;;;;;;4.40;2.70;;;;;;;;;;5070822;28;20292;-75
2022/06/27 04:21:57;;;;;;;6.83;2.93;;;;;;;;;;5076880;28;20225;-75
2022/06/27 04:24:24;;;;;;;5.20;2.43;;;;;;;;;;5066447;28;20259;-76
2022/06/27 04:26:52;;;;;;;4.20;2.70;;;;;;;;;;5082628;28;20265;-76
2022/06/27 04:29:20;;;;;;;13.53;2.90;;;;;;;;;;5071015;28;20910;-76
2022/06/27 04:31:48;;;;;;;6.07;2.67;;;;;;;;;;5070968;28;20238;-76
2022/06/27 04:34:15;;;;;;;4.60;2.50;;;;;;;;;;5066711;28;20231;-76
2022/06/27 04:36:42;;;;;;;6.23;2.30;;;;;;;;;;5050294;28;20202;-75
2022/06/27 04:39:13;;;;;;;6.77;2.63;;;;;;;;;;5051111;28;20205;-76
2022/06/27 04:41:41;;;;;;;5.13;2.73;;;;;;;;;;5064091;28;20276;-76
2022/06/27 04:44:08;;;;;;;5.53;2.70;;;;;;;;;;5066034;28;20557;-76
2022/06/27 04:46:37;;;;;;;8.63;3.00;;;;;;;;;;5070205;28;20233;-76
2022/06/27 04:49:04;;;;;;;6.90;2.70;;;;;;;;;;5057683;28;20286;-76
2022/06/27 04:51:32;;;;;;;5.13;2.60;;;;;;;;;;5066597;28;20269;-76
2022/06/27 04:54:00;;;;;;;8.43;3.03;;;;;;;;;;5057555;28;20206;-76
2022/06/27 04:56:27;;;;;;;8.07;3.07;;;;;;;;;;5061597;28;20237;-76
2022/06/27 04:58:54;;;;;;;7.27;2.93;;;;;;;;;;5081163;28;20217;-76
2022/06/27 05:01:21;;;;;;;7.90;2.90;;;;;;;;;;5065917;28;20233;-76
2022/06/27 05:03:50;;;;;;;7.63;2.90;;;;;;;;;;5065322;28;20916;-77
2022/06/27 05:06:18;;;;;;;5.37;2.87;;;;;;;;;;5054577;28;20286;-79
2022/06/27 05:08:45;;;;;;;4.83;2.60;;;;;;;;;;5056805;28;20214;-79
2022/06/27 05:11:13;;;;;;;6.40;2.63;;;;;;;;;;5067181;28;20206;-78
2022/06/27 05:13:40;;;;;;;12.80;2.83;;;;;;;;;;5068480;28;20200;-78
2022/06/27 05:16:07;;;;;;;7.97;2.43;;;;;;;;;;5068752;28;20246;-78
2022/06/27 05:18:34;;;;;;;6.40;2.80;;;;;;;;;;5069058;28;20706;-78
2022/06/27 05:21:03;;;;;;;4.93;2.40;;;;;;;;;;5060962;28;20230;-79
2022/06/27 05:23:32;;;;;;;5.90;2.60;;;;;;;;;;5065436;28;20279;-79
2022/06/27 05:26:01;;;;;;;8.60;2.57;;;;;;;;;;5075428;28;20654;-79
2022/06/27 05:28:28;;;;;;;6.07;2.67;;;;;;;;;;5071252;28;20223;-79
2022/06/27 05:30:55;;;;;;;5.80;2.40;;;;;;;;;;5079308;28;20282;-77
2022/06/27 05:33:23;;;;;;;4.70;2.00;;;;;;;;;;5070289;28;20290;-77
2022/06/27 05:35:50;;;;;;;6.37;2.50;;;;;;;;;;5069973;28;20196;-76
2022/06/27 05:38:20;;;;;;;5.43;1.97;;;;;;;;;;5059409;28;20226;-75
2022/06/27 05:40:48;;;;;;;5.37;1.83;;;;;;;;;;5079534;28;20195;-76
2022/06/27 05:43:15;;;;;;;6.23;1.90;;;;;;;;;;5073781;28;20203;-76
2022/06/27 05:45:42;;;;;;;6.03;1.97;;;;;;;;;;5060955;28;20298;-76
2022/06/27 05:48:10;;;;;;;5.97;1.90;;;;;;;;;;5056400;28;20244;-76
2022/06/27 05:50:37;;;;;;;6.53;2.00;;;;;;;;;;5056469;28;20230;-76
2022/06/27 05:53:06;;;;;;;5.37;1.90;;;;;;;;;;5062903;28;20279;-76
2022/06/27 05:55:34;;;;;;;4.57;1.67;;;;;;;;;;5064436;28;20569;-75
2022/06/27 05:58:02;;;;;;;3.13;1.50;;;;;;;;;;5064664;28;20267;-75
2022/06/27 06:00:29;;;;;;;8.18;1.67;;;;;;;;;;5044315;28;20202;-75
2022/06/27 06:02:58;;;;;;;2.97;1.30;;;;;;;;;;5074293;28;20658;-73
2022/06/27 06:05:25;;;;;;;5.00;1.45;;;;;;;;;;5057693;28;20224;-75
2022/06/27 06:07:52;;;;;;;6.00;1.63;;;;;;;;;;5068150;28;20195;-75
2022/06/27 06:10:21;;;;;;;7.78;1.90;;;;;;;;;;5068794;28;20624;-75
2022/06/27 06:12:50;;;;;;;6.38;1.70;;;;;;;;;;5068445;28;20796;-76
2022/06/27 06:15:17;;;;;;;4.85;1.20;;;;;;;;;;5067003;28;20256;-76
2022/06/27 06:17:45;;;;;;;5.07;1.50;;;;;;;;;;5060874;28;20737;-76
2022/06/27 06:20:13;;;;;;;4.88;1.60;;;;;;;;;;5067262;28;20235;-74
2022/06/27 06:22:41;;;;;;;4.35;1.40;;;;;;;;;;5067401;28;22444;-74
2022/06/27 06:25:08;;;;;;;4.68;1.48;;;;;;;;;;5061320;28;20605;-75
2022/06/27 06:27:36;;;;;;;5.70;1.38;;;;;;;;;;5067045;28;20714;-76
2022/06/27 06:30:07;;;;;;;4.28;1.48;;;;;;;;;;5061869;28;20203;-76
2022/06/27 06:32:34;;;;;;;6.13;1.30;;;;;;;;;;5066107;28;20223;-75
2022/06/27 06:35:02;;;;;;;5.15;1.35;;;;;;;;;;5065064;28;20199;-76
2022/06/27 06:37:29;;;;;;;10.27;1.95;;;;;;;;;;5067089;28;20199;-76
2022/06/27 06:39:56;;;;;;;5.68;1.55;;;;;;;;;;5068541;28;20203;-76
2022/06/27 06:42:24;;;;;;;5.28;1.45;;;;;;;;;;5061730;28;20630;-76
2022/06/27 06:44:52;;;;;;;7.35;1.55;;;;;;;;;;5068337;28;20302;-75
2022/06/27 06:47:22;;;;;;;3.22;1.23;;;;;;;;;;5057761;28;20195;-76
2022/06/27 06:49:50;;;;;;;4.25;1.52;;;;;;;;;;5070223;28;20205;-76
2022/06/27 06:52:17;;;;;;;6.40;1.75;;;;;;;;;;5068252;28;20702;-77
2022/06/27 06:54:45;;;;;;;4.28;1.40;;;;;;;;;;5061506;28;20199;-76
2022/06/27 06:57:13;;;;;;;4.47;1.58;;;;;;;;;;5067223;28;20200;-76
2022/06/27 06:59:40;;;;;;;6.22;1.70;;;;;;;;;;5065354;28;20294;-76
2022/06/27 07:02:08;;;;;;;5.03;1.42;;;;;;;;;;5067311;28;20289;-76
2022/06/27 07:04:38;;;;;;;5.15;1.45;;;;;;;;;;5066283;28;20250;-76
2022/06/27 07:07:05;;;;;;;4.32;1.50;;;;;;;;;;5070125;28;20256;-77
2022/06/27 07:09:32;;;;;;;6.82;1.42;;;;;;;;;;5070333;28;20206;-75
2022/06/27 07:12:01;;;;;;;3.72;1.40;;;;;;;;;;5058170;28;20634;-76
2022/06/27 07:14:28;;;;;;;6.25;1.40;;;;;;;;;;5057866;28;20218;-76
2022/06/27 07:16:55;;;;;;;5.07;1.27;;;;;;;;;;5068965;28;20674;-75
2022/06/27 07:19:23;;;;;;;5.15;1.30;;;;;;;;;;5046079;28;20289;-77
2022/06/27 07:21:51;;;;;;;4.38;1.52;;;;;;;;;;5070102;28;20212;-76
2022/06/27 07:24:18;;;;;;;4.32;1.45;;;;;;;;;;5068840;28;20286;-77
2022/06/27 07:26:46;;;;;;;6.20;1.40;;;;;;;;;;5069675;28;20238;-77
2022/06/27 07:29:13;;;;;;;3.15;1.33;;;;;;;;;;5069851;28;20203;-76
2022/06/27 07:31:40;;;;;;;3.85;1.48;;;;;;;;;;5067140;28;20199;-77
2022/06/27 07:34:11;;;;;;;6.38;1.65;;;;;;;;;;5067380;28;20230;-77
2022/06/27 07:36:39;;;;;;;5.53;1.73;;;;;;;;;;5074247;28;20202;-76
2022/06/27 07:39:07;;;;;;;4.07;1.30;;;;;;;;;;5069269;28;20203;-76
2022/06/27 07:41:35;;;;;;;6.38;1.60;;;;;;;;;;5069056;28;20785;-77
2022/06/27 07:44:03;;;;;;;3.65;1.58;;;;;;;;;;5068862;28;20218;-77
2022/06/27 07:46:31;;;;;;;4.07;1.60;;;;;;;;;;5067736;28;20219;-77
2022/06/27 07:48:59;;;;;;;4.60;1.25;;;;;;;;;;5069015;28;20286;-77
2022/06/27 07:51:26;;;;;;;2.58;1.13;;;;;;;;;;5068980;28;20266;-77
2022/06/27 07:53:53;;;;;;;2.55;0.88;;;;;;;;;;5059314;28;20255;-77
2022/06/27 07:56:23;;;;;;;3.67;1.10;;;;;;;;;;5068832;28;20277;-76
2022/06/27 07:58:50;;;;;;;3.53;1.23;;;;;;;;;;5069028;28;20663;-77
2022/06/27 08:01:19;;;;;;;4.72;1.27;;;;;;;;;;5068601;28;20203;-77
2022/06/27 08:03:49;;;;;;;3.47;1.20;;;;;;;;;;5067704;28;20248;-77
2022/06/27 08:06:18;;;;;;;3.92;1.30;;;;;;;;;;5067857;28;20231;-76
2022/06/27 08:08:47;;;;;;;5.38;1.33;;;;;;;;;;5067281;28;20301;-77
2022/06/27 08:11:15;;;;;;;5.90;1.23;;;;;;;;;;5068108;28;20667;-77
2022/06/27 08:13:45;;;;;;;5.28;1.25;;;;;;;;;;5069065;28;20226;-77
2022/06/27 08:16:14;;;;;;;5.72;1.58;;;;;;;;;;5070065;28;20219;-77
2022/06/27 08:18:41;;;;;;;5.72;1.75;;;;;;;;;;5048840;28;21695;-76
2022/06/27 08:21:10;;;;;;;6.43;1.20;;;;;;;;;;5073059;28;20203;-76
2022/06/27 08:23:38;;;;;;;3.67;1.33;;;;;;;;;;5069493;28;20286;-77
2022/06/27 08:26:07;;;;;;;3.58;1.10;;;;;;;;;;5070881;28;20702;-77
2022/06/27 08:28:35;;;;;;;2.65;1.42;;;;;;;;;;5071167;28;20623;-77
2022/06/27 08:31:05;;;;;;;4.20;1.20;;;;;;;;;;5073027;28;20229;-76
2022/06/27 08:33:32;;;;;;;5.57;1.45;;;;;;;;;;5063888;28;20200;-76
2022/06/27 08:36:00;;;;;;;4.95;1.15;;;;;;;;;;5058550;28;20742;-76
2022/06/27 08:38:28;;;;;;;3.45;1.02;;;;;;;;;;5070864;28;20294;-76
2022/06/27 08:40:56;;;;;;;5.40;1.40;;;;;;;;;;5058003;28;20199;-76
2022/06/27 08:43:26;;;;;;;5.60;1.08;;;;;;;;;;5065706;28;20298;-76
2022/06/27 08:45:53;;;;;;;4.28;1.10;;;;;;;;;;5065859;28;20725;-76
2022/06/27 08:48:22;;;;;;;9.68;1.20;;;;;;;;;;5071230;28;20210;-76
2022/06/27 08:50:51;;;;;;;3.13;1.00;;;;;;;;;;5072050;28;20344;-76
2022/06/27 08:53:19;;;;;;;2.38;0.90;;;;;;;;;;5070769;28;20199;-76
2022/06/27 08:55:47;;;;;;;3.45;0.98;;;;;;;;;;5070934;28;20187;-76
2022/06/27 08:58:14;;;;;;;3.67;1.20;;;;;;;;;;5072108;28;20329;-76
2022/06/27 09:00:45;;;;;;;5.47;1.30;;;;;;;;;;5070221;28;20242;-76
2022/06/27 09:03:12;;;;;;;4.78;1.08;;;;;;;;;;5066559;28;20603;-76
2022/06/27 09:05:42;;;;;;;2.97;1.20;;;;;;;;;;5071391;28;20772;-76
2022/06/27 09:08:10;;;;;;;3.85;1.23;;;;;;;;;;5069883;28;20249;-76
2022/06/27 09:10:39;;;;;;;3.83;1.20;;;;;;;;;;5068997;28;20559;-76
2022/06/27 09:13:08;;;;;;;2.80;1.00;;;;;;;;;;5070244;28;20314;-76
2022/06/27 09:15:46;;;;;;;3.80;1.08;;;;;;;;;;5071781;28;20274;-76
2022/06/27 09:18:14;;;;;;;3.20;0.93;;;;;;;;;;5071053;28;20238;-76
2022/06/27 09:20:47;;;;;;;3.25;1.02;;;;;;;;;;5064887;28;20234;-76
2022/06/27 09:23:38;;;;;;;3.50;1.10;;;;;;;;;;5070016;28;20209;-76
2022/06/27 09:26:07;;;;;;;4.45;1.15;;;;;;;;;;5064280;28;20215;-76
2022/06/27 09:28:39;;;;;;;5.57;1.00;;;;;;;;;;5071027;28;20631;-76
2022/06/27 09:31:09;;;;;;;3.15;0.80;;;;;;;;;;5072375;28;20214;-76
2022/06/27 09:33:38;;;;;;;3.25;0.70;;;;;;;;;;5064925;28;20223;-76
2022/06/27 09:36:16;;;;;;;3.75;0.93;;;;;;;;;;5069058;28;20543;-76
2022/06/27 09:38:45;;;;;;;3.40;1.10;;;;;;;;;;5072628;28;20202;-76
2022/06/27 09:41:13;;;;;;;3.35;1.00;;;;;;;;;;5071112;28;20643;-77
2022/06/27 09:43:42;;;;;;;4.03;1.00;;;;;;;;;;5073526;28;20203;-76
2022/06/27 09:46:10;;;;;;;3.35;1.08;;;;;;;;;;5071268;28;20319;-77
2022/06/27 09:48:38;;;;;;;3.70;1.00;;;;;;;;;;5071202;28;20658;-77
2022/06/27 09:51:05;;;;;;;2.45;0.90;;;;;;;;;;5063926;28;20251;-77
2022/06/27 09:53:34;;;;;;;2.33;0.88;;;;;;;;;;5070276;28;20222;-76
2022/06/27 09:56:03;;;;;;;1.75;0.82;;;;;;;;;;5063419;28;20203;-76
2022/06/27 09:58:33;;;;;;;4.20;0.80;;;;;;;;;;5065977;28;20191;-77
2022/06/27 10:01:00;;;;;;;2.25;0.75;;;;;;;;;;5070861;28;20302;-76
2022/06/27 10:03:31;;;;;;;1.42;0.60;;;;;;;;;;5065413;28;20289;-76
2022/06/27 10:05:59;;;;;;;5.57;1.30;;;;;;;;;;5069518;28;20225;-77
2022/06/27 10:08:26;;;;;;;3.30;0.98;;;;;;;;;;5067338;28;20605;-76
2022/06/27 10:11:08;;;;;;;2.67;0.90;;;;;;;;;;5070576;28;20726;-77
2022/06/27 10:13:36;;;;;;;2.05;0.95;;;;;;;;;;5066715;28;20575;-77
2022/06/27 10:16:08;;;;;;;2.22;0.85;;;;;;;;;;5068774;28;20196;-77
2022/06/27 10:18:54;;;;;;;3.00;1.00;;;;;;;;;;5066599;28;20285;-77
2022/06/27 10:21:26;;;;;;;5.47;1.23;;;;;;;;;;5069429;28;20234;-77
2022/06/27 10:24:08;;;;;;;5.30;1.27;;;;;;;;;;5046090;28;20202;-76
2022/06/27 10:26:43;;;;;;;2.90;0.70;;;;;;;;;;5068295;28;20736;-76
2022/06/27 10:29:29;;;;;;;1.42;0.77;;;;;;;;;;5062172;28;20198;-78
2022/06/27 10:31:56;;;;;;;1.90;0.65;;;;;;;;;;5058076;28;20203;-77
2022/06/27 10:34:48;;;;;;;1.77;0.57;;;;;;;;;;5065671;28;20294;-77
2022/06/27 10:37:33;;;;;;;2.97;1.00;;;;;;;;;;5069812;28;20710;-77
2022/06/27 10:40:15;;;;;;;3.03;0.90;;;;;;;;;;5064527;28;20243;-77
2022/06/27 10:42:50;;;;;;;1.60;0.70;;;;;;;;;;5068356;28;20722;-78
2022/06/27 10:45:28;;;;;;;3.05;1.00;;;;;;;;;;5066334;28;20305;-76
2022/06/27 10:47:56;;;;;;;1.98;0.80;;;;;;;;;;5069839;28;20206;-76
2022/06/27 10:50:24;;;;;;;2.38;0.95;;;;;;;;;;5068504;28;20325;-77
2022/06/27 10:52:53;;;;;;;1.60;0.77;;;;;;;;;;5062466;28;20222;-76
2022/06/27 10:55:24;;;;;;;2.95;0.93;;;;;;;;;;5065900;28;20234;-77
2022/06/27 10:57:53;;;;;;;1.58;0.60;;;;;;;;;;5054656;28;20290;-77
2022/06/27 11:00:48;;;;;;;2.58;0.82;;;;;;;;;;5068005;28;20286;-77
2022/06/27 11:03:23;;;;;;;4.40;0.90;;;;;;;;;;5069467;28;20211;-77
2022/06/27 11:05:54;;;;;;;1.52;0.75;;;;;;;;;;5062875;28;20257;-77
2022/06/27 11:08:22;;;;;;;1.77;0.65;;;;;;;;;;5068098;28;20291;-77
2022/06/27 11:10:49;;;;;;;1.77;0.70;;;;;;;;;;5056303;28;20258;-77
2022/06/27 11:13:31;;;;;;;2.15;0.85;;;;;;;;;;5066436;28;20199;-77
2022/06/27 11:16:00;;;;;;;2.92;0.85;;;;;;;;;;5059868;28;20638;-77
2022/06/27 11:18:27;;;;;;;2.65;0.63;;;;;;;;;;5062869;28;20631;-77
2022/06/27 11:20:57;;;;;;;1.88;0.88;;;;;;;;;;5062210;28;20233;-77
2022/06/27 11:23:25;;;;;;;2.42;0.80;;;;;;;;;;5061098;28;20196;-77
2022/06/27 11:25:56;;;;;;;3.72;0.68;;;;;;;;;;5058621;28;20346;-77
2022/06/27 11:33:58;;;;;;;2.65;1.23;;;;;;;;;;5060086;28;20202;-77
2022/06/27 11:36:26;;;;;;;4.38;1.00;;;;;;;;;;5061939;28;20191;-77
2022/06/27 11:38:53;;;;;;;3.35;1.00;;;;;;;;;;5068350;28;20231;-77
2022/06/27 11:41:26;;;;;;;3.20;0.80;;;;;;;;;;5063859;28;20288;-77
2022/06/27 11:43:56;;;;;;;3.22;0.88;;;;;;;;;;5061110;28;20204;-77
2022/06/27 11:46:39;;;;;;;1.30;0.90;;;;;;;;;;5065851;28;20223;-76
2022/06/27 11:49:09;;;;;;;2.30;0.75;;;;;;;;;;5062681;28;20196;-77
2022/06/27 11:51:37;;;;;;;2.97;0.80;;;;;;;;;;5069153;28;20234;-76
2022/06/27 11:54:06;;;;;;;1.20;0.68;;;;;;;;;;5068618;28;20242;-77
2022/06/27 11:56:34;;;;;;;1.98;0.85;;;;;;;;;;5072494;28;20199;-77
2022/06/27 11:59:01;;;;;;;2.72;0.70;;;;;;;;;;5072791;28;20195;-77
2022/06/27 12:01:29;;;;;;;6.07;0.90;;;;;;;;;;5072146;28;20227;-77
2022/06/27 12:04:14;;;;;;;3.05;0.70;;;;;;;;;;5071916;28;20203;-76
2022/06/27 12:06:42;;;;;;;2.90;0.80;;;;;;;;;;5072705;28;20273;-77
2022/06/27 12:09:09;;;;;;;1.95;0.70;;;;;;;;;;5068116;28;20569;-76
2022/06/27 12:11:36;;;;;;;3.40;0.82;;;;;;;;;;5064291;28;20294;-76
2022/06/27 12:14:04;;;;;;;2.45;0.50;;;;;;;;;;5068705;28;20363;-76
2022/06/27 12:16:45;;;;;;;3.63;0.98;;;;;;;;;;5069283;28;20674;-76
2022/06/27 12:19:15;;;;;;;5.78;0.88;;;;;;;;;;5064168;28;20552;-76
2022/06/27 12:21:42;;;;;;;2.67;0.68;;;;;;;;;;5067581;28;20203;-76
2022/06/27 12:24:10;;;;;;;4.38;0.82;;;;;;;;;;5070526;28;20757;-76
2022/06/27 12:26:37;;;;;;;7.05;1.13;;;;;;;;;;5071760;28;20314;-75
2022/06/27 12:29:05;;;;;;;2.83;0.70;;;;;;;;;;5072560;28;20245;-76
2022/06/27 12:31:33;;;;;;;2.47;0.80;;;;;;;;;;5069395;28;20196;-76
2022/06/27 12:34:00;;;;;;;4.75;0.90;;;;;;;;;;5068386;28;20227;-76
2022/06/27 12:36:30;;;;;;;3.03;0.70;;;;;;;;;;5048242;28;20230;-76
2022/06/27 12:38:58;;;;;;;4.15;0.98;;;;;;;;;;5064264;28;20203;-76
2022/06/27 12:41:25;;;;;;;2.97;1.05;;;;;;;;;;5071883;28;20286;-76
2022/06/27 12:43:52;;;;;;;4.13;1.00;;;;;;;;;;5067629;28;20285;-76
2022/06/27 12:46:20;;;;;;;2.95;0.90;;;;;;;;;;5069988;28;20276;-76
2022/06/27 12:48:48;;;;;;;3.10;0.70;;;;;;;;;;5066549;28;20652;-75
2022/06/27 12:51:15;;;;;;;3.65;1.00;;;;;;;;;;5061371;28;20341;-76
2022/06/27 12:53:44;;;;;;;3.10;0.93;;;;;;;;;;5065364;28;20203;-76
2022/06/27 12:56:11;;;;;;;2.85;0.68;;;;;;;;;;5063472;28;20194;-76
2022/06/27 12:58:39;;;;;;;3.72;0.90;;;;;;;;;;5048054;28;20264;-76
2022/06/27 13:01:06;;;;;;;3.03;0.75;;;;;;;;;;5064793;28;20725;-76
2022/06/27 13:03:33;;;;;;;4.75;0.82;;;;;;;;;;5063844;28;20290;-76
2022/06/27 13:06:01;;;;;;;3.33;0.70;;;;;;;;;;5065170;28;20279;-76
2022/06/27 13:08:28;;;;;;;3.95;0.75;;;26.90;33.30;;;;;;5062644;28;20278;-76
2022/06/27 13:10:56;;;;;;;5.22;0.90;;;26.80;32.70;;;;;;5064071;28;20246;-76
2022/06/27 13:13:23;;;;;;;1.75;0.70;;;26.90;28.00;;;;;;5065960;28;20209;-76
2022/06/27 13:15:50;;;;;;;3.42;0.60;;;26.30;20.90;;;;;;5063995;28;20298;-76
2022/06/27 13:18:17;;;;;;;3.42;0.93;;;25.90;30.60;;;;;;5072751;28;20300;-76
2022/06/27 13:20:44;;;;;;;3.42;1.10;;;25.40;32.60;;;;;;5070714;28;20281;-77
2022/06/27 13:23:12;;;;;;;11.85;4.45;;;25.10;53.70;;;;;;5065092;28;20292;-76
2022/06/27 13:25:39;;;;;;;10.18;4.28;;;25.20;54.20;;;;;;5068741;28;20752;-76
2022/06/27 13:28:08;;;;;;;3.60;1.45;;;25.10;34.70;;;;;;5069840;28;20215;-76
2022/06/27 13:30:35;;;;;;;4.55;0.95;;;24.80;37.70;;;;;;5070067;28;20286;-76
2022/06/27 13:33:02;;;;;;;14.40;1.30;;;24.80;42.60;;;;;;5068204;28;20196;-76
2022/06/27 13:35:29;;;;;;;6.85;0.82;;;24.80;35.90;;;;;;5060989;28;20568;-75
2022/06/27 13:37:57;;;;;;;4.47;0.70;;;24.60;38.50;;;;;;5063457;28;20783;-76
2022/06/27 13:40:24;;;;;;;3.08;0.70;;;24.70;39.80;;;;;;5070485;28;20195;-76
2022/06/27 13:42:51;;;;;;;1.88;0.60;;;24.90;36.40;;;;;;5067712;28;20223;-76
2022/06/27 13:45:19;;;;;;;1.23;0.50;;;25.10;32.10;;;;;;5067333;28;20290;-76
2022/06/27 13:47:46;;;;;;;3.63;0.52;;;25.00;32.50;;;;;;5071244;28;20316;-76
2022/06/27 13:50:13;;;;;;;1.35;0.45;;;24.80;27.80;;;;;;5061505;28;20319;-76
2022/06/27 13:52:40;;;;;;;1.70;0.40;;;24.80;43.20;;;;;;5069592;28;20217;-76
2022/06/27 13:55:08;;;;;;;0.63;0.40;;;24.50;32.40;;;;;;5068914;28;20239;-76
2022/06/27 13:57:34;;;;;;;1.58;0.50;;;24.20;42.10;;;;;;5066375;28;20238;-76
2022/06/27 14:00:02;;;;;;;2.65;0.50;;;24.40;50.50;;;;;;5072171;28;20230;-76
2022/06/27 14:02:31;;;;;;;5.07;0.80;;;24.80;47.30;;;;;;5069323;28;20191;-76
2022/06/27 14:04:59;;;;;;;1.63;0.50;;;24.70;40.10;;;;;;5069156;28;20681;-76
2022/06/27 14:07:39;;;;;;;1.73;0.50;;;24.40;45.10;;;;;;5069728;28;20898;-76
2022/06/27 14:10:09;;;;;;;2.15;0.40;;;24.30;46.20;;;;;;5065324;28;20204;-76
2022/06/27 14:12:36;;;;;;;2.55;0.60;;;23.90;52.50;;;;;;5069566;28;20285;-77
2022/06/27 14:15:04;;;;;;;2.45;0.60;;;23.70;51.70;;;;;;5070991;28;20278;-76
2022/06/27 14:17:33;;;;;;;11.27;1.00;;;23.60;58.50;;;;;;5069838;28;20203;-76
2022/06/27 14:20:00;;;;;;;3.35;0.77;;;23.40;65.00;;;;;;5069461;28;20253;-75
2022/06/27 14:22:28;;;;;;;3.42;0.77;;;23.30;61.40;;;;;;5068035;28;20226;-75
2022/06/27 14:24:55;;;;;;;1.90;0.60;;;23.30;66.20;;;;;;5071069;28;20299;-75
2022/06/27 14:27:22;;;;;;;1.33;0.60;;;23.40;63.40;;;;;;5070137;28;20306;-76
2022/06/27 14:29:49;;;;;;;1.80;0.60;;;23.10;63.40;;;;;;5070055;28;20198;-76
2022/06/27 14:32:16;;;;;;;1.05;0.57;;;22.70;65.50;;;;;;5067600;28;20210;-75
2022/06/27 14:34:44;;;;;;;1.13;0.60;;;22.50;68.70;;;;;;5067213;28;20236;-76
2022/06/27 14:37:12;;;;;;;1.63;0.60;;;22.30;72.50;;;;;;5063923;28;20224;-75
2022/06/27 14:39:39;;;;;;;3.33;0.57;;;22.20;80.80;;;;;;5065436;28;20195;-76
2022/06/27 14:42:07;;;;;;;1.10;0.60;;;22.20;84.80;;;;;;5051726;28;20275;-76
2022/06/27 14:44:34;;;;;;;2.00;0.60;;;21.90;87.20;;;;;;5061844;28;20214;-76
2022/06/27 14:47:02;;;;;;;2.53;0.80;;;21.80;92.90;;;;;;5064039;28;20292;-76